sensor_id;sensor_type;location;lat;lon;timestamp;pressure;altitude;pressure_sealevel;temperature;humidity
23059;BME280;30585;51.502;7.218;2022-09-17T00:01:06;152662.91;;;9.79;100.00
23059;BME280;30585;51.502;7.218;2022-09-17T00:03:35;152684.88;;;9.88;100.00
23059;BME280;30585;51.502;7.218;2022-09-17T00:06:05;152682.28;;;9.87;100.00
23059;BME280;30585;51.502;7.218;2022-09-17T00:08:36;152678.44;;;9.85;100.00
23059;BME280;30585;51.502;7.218;2022-09-17T00:11:05;152591.91;;;9.50;100.00
23059;BME280;30585;51.502;7.218;2022-09-17T00:13:34;152648.69;;;9.73;100.00
23059;BME280;30585;51.502;7.218;2022-09-17T00:16:02;152638.38;;;9.69;100.00
23059;BME280;30585;51.502;7.218;2022-09-17T00:18:29;152642.25;;;9.71;100.00
23059;BME280;30585;51.502;7.218;2022-09-17T00:20:57;152657.72;;;9.77;100.00
23059;BME280;30585;51.502;7.218;2022-09-17T00:23:25;152646.09;;;9.72;100.00
23059;BME280;30585;51.502;7.218;2022-09-17T00:25:55;152646.09;;;9.72;100.00
23059;BME280;30585;51.502;7.218;2022-09-17T00:28:23;152622.84;;;9.63;100.00
23059;BME280;30585;51.502;7.218;2022-09-17T00:30:50;152629.34;;;9.65;100.00
23059;BME280;30585;51.502;7.218;2022-09-17T00:33:18;152612.53;;;9.59;100.00
23059;BME280;30585;51.502;7.218;2022-09-17T00:35:57;152558.28;;;9.37;100.00
23059;BME280;30585;51.502;7.218;2022-09-17T00:38:25;152524.69;;;9.24;100.00
23059;BME280;30585;51.502;7.218;2022-09-17T00:40:55;152591.91;;;9.50;100.00
23059;BME280;30585;51.502;7.218;2022-09-17T00:43:38;152528.63;;;9.25;100.00
23059;BME280;30585;51.502;7.218;2022-09-17T00:48:57;152597.03;;;9.52;100.00
23059;BME280;30585;51.502;7.218;2022-09-17T00:51:33;152597.03;;;9.52;100.00
23059;BME280;30585;51.502;7.218;2022-09-17T00:54:05;152594.47;;;9.51;100.00
23059;BME280;30585;51.502;7.218;2022-09-17T00:56:37;152585.41;;;9.48;100.00
23059;BME280;30585;51.502;7.218;2022-09-17T00:59:06;152593.16;;;9.51;100.00
23059;BME280;30585;51.502;7.218;2022-09-17T01:01:35;152581.53;;;9.46;100.00
23059;BME280;30585;51.502;7.218;2022-09-17T01:04:04;152593.16;;;9.51;100.00
23059;BME280;30585;51.502;7.218;2022-09-17T01:06:36;152606.09;;;9.56;100.00
23059;BME280;30585;51.502;7.218;2022-09-17T01:09:22;152608.63;;;9.57;100.00
23059;BME280;30585;51.502;7.218;2022-09-17T01:12:08;152608.63;;;9.57;100.00
23059;BME280;30585;51.502;7.218;2022-09-17T01:14:47;152599.59;;;9.54;100.00
23059;BME280;30585;51.502;7.218;2022-09-17T01:17:25;152593.16;;;9.51;100.00
23059;BME280;30585;51.502;7.218;2022-09-17T01:23:09;152524.69;;;9.24;100.00
23059;BME280;30585;51.502;7.218;2022-09-17T01:25:51;152591.91;;;9.50;100.00
23059;BME280;30585;51.502;7.218;2022-09-17T01:28:33;152578.94;;;9.45;100.00
23059;BME280;30585;51.502;7.218;2022-09-17T01:31:28;152555.72;;;9.36;100.00
23059;BME280;30585;51.502;7.218;2022-09-17T01:34:09;152506.63;;;9.16;100.00
23059;BME280;30585;51.502;7.218;2022-09-17T01:36:47;152529.88;;;9.26;100.00
23059;BME280;30585;51.502;7.218;2022-09-17T01:39:25;152535.06;;;9.28;100.00
23059;BME280;30585;51.502;7.218;2022-09-17T01:41:58;152553.13;;;9.35;100.00
23059;BME280;30585;51.502;7.218;2022-09-17T01:44:36;152545.41;;;9.32;100.00
23059;BME280;30585;51.502;7.218;2022-09-17T01:47:09;152532.47;;;9.27;100.00
23059;BME280;30585;51.502;7.218;2022-09-17T01:49:47;152524.69;;;9.24;100.00
23059;BME280;30585;51.502;7.218;2022-09-17T01:52:16;152532.47;;;9.27;100.00
23059;BME280;30585;51.502;7.218;2022-09-17T01:54:49;152532.47;;;9.27;100.00
23059;BME280;30585;51.502;7.218;2022-09-17T01:57:22;152533.78;;;9.27;100.00
23059;BME280;30585;51.502;7.218;2022-09-17T01:59:56;152509.22;;;9.17;100.00
23059;BME280;30585;51.502;7.218;2022-09-17T02:02:29;152537.66;;;9.29;100.00
23059;BME280;30585;51.502;7.218;2022-09-17T02:05:02;152533.78;;;9.27;100.00
23059;BME280;30585;51.502;7.218;2022-09-17T02:07:33;152470.50;;;9.02;100.00
23059;BME280;30585;51.502;7.218;2022-09-17T02:10:08;152491.16;;;9.10;100.00
23059;BME280;30585;51.502;7.218;2022-09-17T02:12:40;152540.22;;;9.30;100.00
23059;BME280;30585;51.502;7.218;2022-09-17T02:15:13;152562.16;;;9.39;100.00
23059;BME280;30585;51.502;7.218;2022-09-17T02:17:47;152532.47;;;9.27;100.00
23059;BME280;30585;51.502;7.218;2022-09-17T02:20:17;152545.41;;;9.32;100.00
23059;BME280;30585;51.502;7.218;2022-09-17T02:22:51;152520.84;;;9.22;100.00
23059;BME280;30585;51.502;7.218;2022-09-17T02:25:25;152554.44;;;9.35;100.00
23059;BME280;30585;51.502;7.218;2022-09-17T02:27:57;152553.13;;;9.35;100.00
23059;BME280;30585;51.502;7.218;2022-09-17T02:30:29;152559.63;;;9.38;100.00
23059;BME280;30585;51.502;7.218;2022-09-17T02:33:01;152537.66;;;9.29;100.00
23059;BME280;30585;51.502;7.218;2022-09-17T02:35:29;152501.47;;;9.14;100.00
23059;BME280;30585;51.502;7.218;2022-09-17T02:37:59;152478.22;;;9.05;100.00
23059;BME280;30585;51.502;7.218;2022-09-17T02:40:33;152524.69;;;9.24;100.00
23059;BME280;30585;51.502;7.218;2022-09-17T02:43:13;152517.00;;;9.20;100.00
23059;BME280;30585;51.502;7.218;2022-09-17T02:45:52;152524.69;;;9.24;100.00
23059;BME280;30585;51.502;7.218;2022-09-17T02:48:40;152532.47;;;9.27;100.00
23059;BME280;30585;51.502;7.218;2022-09-17T02:51:22;152519.56;;;9.22;100.00
23059;BME280;30585;51.502;7.218;2022-09-17T02:54:01;152544.09;;;9.31;100.00
23059;BME280;30585;51.502;7.218;2022-09-17T02:56:39;152550.53;;;9.34;100.00
23059;BME280;30585;51.502;7.218;2022-09-17T02:59:16;152535.06;;;9.28;100.00
23059;BME280;30585;51.502;7.218;2022-09-17T03:01:51;152504.06;;;9.15;100.00
23059;BME280;30585;51.502;7.218;2022-09-17T03:04:25;152535.06;;;9.28;100.00
23059;BME280;30585;51.502;7.218;2022-09-17T03:06:55;152545.41;;;9.32;100.00
23059;BME280;30585;51.502;7.218;2022-09-17T03:09:25;152518.25;;;9.21;100.00
23059;BME280;30585;51.502;7.218;2022-09-17T03:11:52;152529.88;;;9.26;100.00
23059;BME280;30585;51.502;7.218;2022-09-17T03:14:20;152517.00;;;9.20;100.00
23059;BME280;30585;51.502;7.218;2022-09-17T03:16:48;152535.06;;;9.28;100.00
23059;BME280;30585;51.502;7.218;2022-09-17T03:19:16;152506.63;;;9.16;100.00
23059;BME280;30585;51.502;7.218;2022-09-17T03:21:45;152529.88;;;9.26;100.00
23059;BME280;30585;51.502;7.218;2022-09-17T03:24:13;152467.94;;;9.01;100.00
23059;BME280;30585;51.502;7.218;2022-09-17T03:26:42;152488.56;;;9.09;100.00
23059;BME280;30585;51.502;7.218;2022-09-17T03:29:12;152514.41;;;9.19;100.00
23059;BME280;30585;51.502;7.218;2022-09-17T03:31:41;152520.84;;;9.22;100.00
23059;BME280;30585;51.502;7.218;2022-09-17T03:34:09;152514.41;;;9.19;100.00
23059;BME280;30585;51.502;7.218;2022-09-17T03:36:37;152517.00;;;9.20;100.00
23059;BME280;30585;51.502;7.218;2022-09-17T03:39:06;152506.63;;;9.16;100.00
23059;BME280;30585;51.502;7.218;2022-09-17T03:41:34;152488.56;;;9.09;100.00
23059;BME280;30585;51.502;7.218;2022-09-17T03:44:02;152504.06;;;9.15;100.00
23059;BME280;30585;51.502;7.218;2022-09-17T03:46:30;152488.56;;;9.09;100.00
23059;BME280;30585;51.502;7.218;2022-09-17T03:48:58;152492.44;;;9.11;100.00
23059;BME280;30585;51.502;7.218;2022-09-17T03:51:26;152526.03;;;9.24;100.00
23059;BME280;30585;51.502;7.218;2022-09-17T03:53:54;152457.59;;;8.97;100.00
23059;BME280;30585;51.502;7.218;2022-09-17T03:56:23;152504.06;;;9.15;100.00
23059;BME280;30585;51.502;7.218;2022-09-17T03:58:56;152510.53;;;9.18;100.00
23059;BME280;30585;51.502;7.218;2022-09-17T04:01:24;152505.38;;;9.16;100.00
23059;BME280;30585;51.502;7.218;2022-09-17T04:03:52;152501.47;;;9.14;100.00
23059;BME280;30585;51.502;7.218;2022-09-17T04:06:20;152478.22;;;9.05;100.00
23059;BME280;30585;51.502;7.218;2022-09-17T04:08:48;152470.50;;;9.02;100.00
23059;BME280;30585;51.502;7.218;2022-09-17T04:11:16;152489.84;;;9.10;100.00
23059;BME280;30585;51.502;7.218;2022-09-17T04:13:46;152435.66;;;8.88;100.00
23059;BME280;30585;51.502;7.218;2022-09-17T04:16:14;152438.25;;;8.89;100.00
23059;BME280;30585;51.502;7.218;2022-09-17T04:18:42;152453.72;;;8.95;100.00
23059;BME280;30585;51.502;7.218;2022-09-17T04:21:09;152461.47;;;8.98;100.00
23059;BME280;30585;51.502;7.218;2022-09-17T04:23:37;152449.88;;;8.94;100.00
23059;BME280;30585;51.502;7.218;2022-09-17T04:26:05;152376.25;;;8.64;100.00
23059;BME280;30585;51.502;7.218;2022-09-17T04:28:33;152421.47;;;8.82;100.00
23059;BME280;30585;51.502;7.218;2022-09-17T04:31:02;152426.63;;;8.84;100.00
23059;BME280;30585;51.502;7.218;2022-09-17T04:33:30;152425.31;;;8.84;100.00
23059;BME280;30585;51.502;7.218;2022-09-17T04:35:58;152442.09;;;8.91;100.00
23059;BME280;30585;51.502;7.218;2022-09-17T04:38:26;152453.72;;;8.95;100.00
23059;BME280;30585;51.502;7.218;2022-09-17T04:40:54;152442.09;;;8.91;100.00
23059;BME280;30585;51.502;7.218;2022-09-17T04:43:22;152426.63;;;8.84;100.00
23059;BME280;30585;51.502;7.218;2022-09-17T04:45:50;152475.69;;;9.04;100.00
23059;BME280;30585;51.502;7.218;2022-09-17T04:48:20;152455.00;;;8.96;100.00
23059;BME280;30585;51.502;7.218;2022-09-17T04:50:47;152469.19;;;9.01;100.00
23059;BME280;30585;51.502;7.218;2022-09-17T04:53:15;152475.69;;;9.04;100.00
23059;BME280;30585;51.502;7.218;2022-09-17T04:55:44;152431.75;;;8.86;100.00
23059;BME280;30585;51.502;7.218;2022-09-17T04:58:12;152471.78;;;9.02;100.00
23059;BME280;30585;51.502;7.218;2022-09-17T05:00:40;152413.69;;;8.79;100.00
23059;BME280;30585;51.502;7.218;2022-09-17T05:03:08;152436.94;;;8.88;100.00
23059;BME280;30585;51.502;7.218;2022-09-17T05:05:37;152436.94;;;8.88;100.00
23059;BME280;30585;51.502;7.218;2022-09-17T05:08:05;152439.53;;;8.89;100.00
23059;BME280;30585;51.502;7.218;2022-09-17T05:10:33;152470.50;;;9.02;100.00
23059;BME280;30585;51.502;7.218;2022-09-17T05:13:01;152452.41;;;8.95;100.00
23059;BME280;30585;51.502;7.218;2022-09-17T05:15:29;152460.16;;;8.98;100.00
23059;BME280;30585;51.502;7.218;2022-09-17T05:17:57;152467.94;;;9.01;100.00
23059;BME280;30585;51.502;7.218;2022-09-17T05:20:25;152475.69;;;9.04;100.00
23059;BME280;30585;51.502;7.218;2022-09-17T05:22:54;152447.28;;;8.93;100.00
23059;BME280;30585;51.502;7.218;2022-09-17T05:25:22;152493.75;;;9.11;100.00
23059;BME280;30585;51.502;7.218;2022-09-17T05:27:51;152492.44;;;9.11;100.00
23059;BME280;30585;51.502;7.218;2022-09-17T05:30:19;152524.69;;;9.24;100.00
23059;BME280;30585;51.502;7.218;2022-09-17T05:32:47;152498.94;;;9.13;100.00
23059;BME280;30585;51.502;7.218;2022-09-17T05:35:16;152497.59;;;9.13;100.00
23059;BME280;30585;51.502;7.218;2022-09-17T05:37:44;152489.84;;;9.10;100.00
23059;BME280;30585;51.502;7.218;2022-09-17T05:40:13;152523.44;;;9.23;100.00
23059;BME280;30585;51.502;7.218;2022-09-17T05:42:41;152527.28;;;9.25;100.00
23059;BME280;30585;51.502;7.218;2022-09-17T05:45:09;152535.06;;;9.28;100.00
23059;BME280;30585;51.502;7.218;2022-09-17T05:47:37;152560.88;;;9.38;100.00
23059;BME280;30585;51.502;7.218;2022-09-17T05:50:05;152568.66;;;9.41;100.00
23059;BME280;30585;51.502;7.218;2022-09-17T05:52:33;152589.31;;;9.49;100.00
23059;BME280;30585;51.502;7.218;2022-09-17T05:55:01;152597.03;;;9.52;100.00
23059;BME280;30585;51.502;7.218;2022-09-17T05:57:30;152594.47;;;9.51;100.00
23059;BME280;30585;51.502;7.218;2022-09-17T05:59:58;152606.09;;;9.56;100.00
23059;BME280;30585;51.502;7.218;2022-09-17T06:02:26;152612.53;;;9.59;100.00
23059;BME280;30585;51.502;7.218;2022-09-17T06:04:54;152615.13;;;9.60;100.00
23059;BME280;30585;51.502;7.218;2022-09-17T06:07:26;152616.41;;;9.60;100.00
23059;BME280;30585;51.502;7.218;2022-09-17T06:09:53;152629.34;;;9.65;100.00
23059;BME280;30585;51.502;7.218;2022-09-17T06:12:21;152633.22;;;9.67;100.00
23059;BME280;30585;51.502;7.218;2022-09-17T06:14:51;152656.44;;;9.76;100.00
23059;BME280;30585;51.502;7.218;2022-09-17T06:19:47;152612.53;;;9.59;100.00
23059;BME280;30585;51.502;7.218;2022-09-17T06:22:17;152624.16;;;9.63;100.00
23059;BME280;30585;51.502;7.218;2022-09-17T06:24:45;152643.56;;;9.71;100.00
23059;BME280;30585;51.502;7.218;2022-09-17T06:27:12;152631.94;;;9.66;100.00
23059;BME280;30585;51.502;7.218;2022-09-17T06:29:40;152640.97;;;9.70;100.00
23059;BME280;30585;51.502;7.218;2022-09-17T06:32:10;152630.63;;;9.66;100.00
23059;BME280;30585;51.502;7.218;2022-09-17T06:34:41;152640.97;;;9.70;100.00
23059;BME280;30585;51.502;7.218;2022-09-17T06:37:09;152621.59;;;9.62;100.00
23059;BME280;30585;51.502;7.218;2022-09-17T06:39:37;152582.84;;;9.47;100.00
23059;BME280;30585;51.502;7.218;2022-09-17T06:42:05;152603.50;;;9.55;100.00
23059;BME280;30585;51.502;7.218;2022-09-17T06:44:34;152622.84;;;9.63;100.00
23059;BME280;30585;51.502;7.218;2022-09-17T06:47:01;152567.34;;;9.41;100.00
23059;BME280;30585;51.502;7.218;2022-09-17T06:49:31;152566.06;;;9.40;100.00
23059;BME280;30585;51.502;7.218;2022-09-17T06:54:27;152668.06;;;9.81;100.00
23059;BME280;30585;51.502;7.218;2022-09-17T06:56:54;152617.72;;;9.61;100.00
23059;BME280;30585;51.502;7.218;2022-09-17T06:59:22;152669.34;;;9.81;100.00
23059;BME280;30585;51.502;7.218;2022-09-17T07:01:50;152674.53;;;9.83;100.00
23059;BME280;30585;51.502;7.218;2022-09-17T07:04:18;152706.81;;;9.96;100.00
23059;BME280;30585;51.502;7.218;2022-09-17T07:06:47;152675.84;;;9.84;100.00
23059;BME280;30585;51.502;7.218;2022-09-17T07:09:15;152677.13;;;9.85;100.00
23059;BME280;30585;51.502;7.218;2022-09-17T07:11:43;152702.94;;;9.95;100.00
23059;BME280;30585;51.502;7.218;2022-09-17T07:14:11;152695.19;;;9.92;100.00
23059;BME280;30585;51.502;7.218;2022-09-17T07:16:39;152683.56;;;9.87;100.00
23059;BME280;30585;51.502;7.218;2022-09-17T07:19:06;152697.78;;;9.93;100.00
23059;BME280;30585;51.502;7.218;2022-09-17T07:21:34;152700.38;;;9.94;100.00
23059;BME280;30585;51.502;7.218;2022-09-17T07:24:04;152699.09;;;9.93;100.00
23059;BME280;30585;51.502;7.218;2022-09-17T07:26:32;152767.53;;;10.21;100.00
23059;BME280;30585;51.502;7.218;2022-09-17T07:28:59;152740.44;;;10.10;100.00
23059;BME280;30585;51.502;7.218;2022-09-17T07:31:27;152827.06;;;10.44;100.00
23059;BME280;30585;51.502;7.218;2022-09-17T07:33:55;152819.28;;;10.41;100.00
23059;BME280;30585;51.502;7.218;2022-09-17T07:36:23;152952.41;;;10.95;100.00
23059;BME280;30585;51.502;7.218;2022-09-17T07:38:51;152971.81;;;11.02;100.00
23059;BME280;30585;51.502;7.218;2022-09-17T07:41:20;152962.78;;;10.99;100.00
23059;BME280;30585;51.502;7.218;2022-09-17T07:43:51;152986.03;;;11.08;100.00
23059;BME280;30585;51.502;7.218;2022-09-17T07:46:20;153037.78;;;11.29;100.00
23059;BME280;30585;51.502;7.218;2022-09-17T07:48:48;153138.59;;;11.69;100.00
23059;BME280;30585;51.502;7.218;2022-09-17T07:51:18;153236.97;;;12.08;100.00
23059;BME280;30585;51.502;7.218;2022-09-17T07:53:49;153264.16;;;12.19;100.00
23059;BME280;30585;51.502;7.218;2022-09-17T07:56:17;153262.84;;;12.19;100.00
23059;BME280;30585;51.502;7.218;2022-09-17T07:58:46;153208.50;;;11.97;100.00
23059;BME280;30585;51.502;7.218;2022-09-17T08:01:15;153165.81;;;11.80;100.00
23059;BME280;30585;51.502;7.218;2022-09-17T08:03:47;153189.09;;;11.89;100.00
23059;BME280;30585;51.502;7.218;2022-09-17T08:06:17;153240.88;;;12.10;100.00
23059;BME280;30585;51.502;7.218;2022-09-17T08:08:46;153292.66;;;12.30;100.00
23059;BME280;30585;51.502;7.218;2022-09-17T08:11:16;153321.06;;;12.42;100.00
23059;BME280;30585;51.502;7.218;2022-09-17T08:14:08;153305.56;;;12.36;100.00
23059;BME280;30585;51.502;7.218;2022-09-17T08:16:37;153281.00;;;12.26;97.84
23059;BME280;30585;51.502;7.218;2022-09-17T08:19:05;153297.78;;;12.32;100.00
23059;BME280;30585;51.502;7.218;2022-09-17T08:21:34;153357.34;;;12.56;97.51
23059;BME280;30585;51.502;7.218;2022-09-17T08:24:03;153384.50;;;12.67;100.00
23059;BME280;30585;51.502;7.218;2022-09-17T08:26:30;153435.00;;;12.87;98.49
23059;BME280;30585;51.502;7.218;2022-09-17T08:28:58;153476.41;;;13.04;95.21
23059;BME280;30585;51.502;7.218;2022-09-17T08:31:28;153519.16;;;13.21;94.67
23059;BME280;30585;51.502;7.218;2022-09-17T08:33:56;153515.25;;;13.19;98.58
23059;BME280;30585;51.502;7.218;2022-09-17T08:36:25;153541.16;;;13.30;95.91
23059;BME280;30585;51.502;7.218;2022-09-17T08:38:54;153512.66;;;13.18;90.58
23059;BME280;30585;51.502;7.218;2022-09-17T08:41:29;153546.34;;;13.32;92.87
23059;BME280;30585;51.502;7.218;2022-09-17T08:44:13;153648.69;;;13.73;92.73
23059;BME280;30585;51.502;7.218;2022-09-17T08:46:46;153659.06;;;13.77;90.98
23059;BME280;30585;51.502;7.218;2022-09-17T08:49:22;153655.19;;;13.75;88.51
23059;BME280;30585;51.502;7.218;2022-09-17T08:52:00;153603.38;;;13.54;87.80
23059;BME280;30585;51.502;7.218;2022-09-17T08:54:38;153581.34;;;13.46;91.15
23059;BME280;30585;51.502;7.218;2022-09-17T08:57:17;153652.59;;;13.74;87.93
23059;BME280;30585;51.502;7.218;2022-09-17T08:59:55;153717.34;;;14.00;90.80
23059;BME280;30585;51.502;7.218;2022-09-17T09:02:35;153840.44;;;14.49;86.84
23059;BME280;30585;51.502;7.218;2022-09-17T09:05:10;153856.00;;;14.55;83.08
23059;BME280;30585;51.502;7.218;2022-09-17T09:07:42;153798.97;;;14.32;86.62
23059;BME280;30585;51.502;7.218;2022-09-17T09:10:16;153677.19;;;13.84;84.39
23059;BME280;30585;51.502;7.218;2022-09-17T09:12:48;153747.13;;;14.12;83.23
23059;BME280;30585;51.502;7.218;2022-09-17T09:15:24;153849.50;;;14.53;84.85
23059;BME280;30585;51.502;7.218;2022-09-17T09:18:00;153828.75;;;14.44;86.35
23059;BME280;30585;51.502;7.218;2022-09-17T09:20:37;153788.59;;;14.28;84.35
23059;BME280;30585;51.502;7.218;2022-09-17T09:23:13;153771.78;;;14.22;85.58
23059;BME280;30585;51.502;7.218;2022-09-17T09:25:52;153867.66;;;14.60;79.52
23059;BME280;30585;51.502;7.218;2022-09-17T09:31:30;153906.59;;;14.75;81.34
23059;BME280;30585;51.502;7.218;2022-09-17T09:34:03;154033.63;;;15.26;83.63
23059;BME280;30585;51.502;7.218;2022-09-17T09:36:32;154045.31;;;15.31;73.46
23059;BME280;30585;51.502;7.218;2022-09-17T09:39:02;154095.84;;;15.51;73.91
23059;BME280;30585;51.502;7.218;2022-09-17T09:41:38;154051.78;;;15.33;70.42
23059;BME280;30585;51.502;7.218;2022-09-17T09:44:12;154163.28;;;15.78;76.83
23059;BME280;30585;51.502;7.218;2022-09-17T09:46:58;154186.72;;;15.87;73.80
23059;BME280;30585;51.502;7.218;2022-09-17T09:49:45;154036.25;;;15.27;72.61
23059;BME280;30585;51.502;7.218;2022-09-17T09:52:31;154095.84;;;15.51;73.41
23059;BME280;30585;51.502;7.218;2022-09-17T09:55:17;154152.94;;;15.73;79.41
23059;BME280;30585;51.502;7.218;2022-09-17T09:57:54;154168.47;;;15.80;70.80
23059;BME280;30585;51.502;7.218;2022-09-17T10:00:27;154134.78;;;15.66;64.79
23059;BME280;30585;51.502;7.218;2022-09-17T10:02:59;154139.94;;;15.68;71.08
23059;BME280;30585;51.502;7.218;2022-09-17T10:05:31;154098.44;;;15.52;69.82
23059;BME280;30585;51.502;7.218;2022-09-17T10:07:59;154120.53;;;15.61;70.48
23059;BME280;30585;51.502;7.218;2022-09-17T10:10:27;154075.13;;;15.42;66.54
23059;BME280;30585;51.502;7.218;2022-09-17T10:13:08;154089.38;;;15.48;68.01
23059;BME280;30585;51.502;7.218;2022-09-17T10:15:40;154090.66;;;15.49;65.21
23059;BME280;30585;51.502;7.218;2022-09-17T10:18:14;154067.31;;;15.39;64.77
23059;BME280;30585;51.502;7.218;2022-09-17T10:20:55;154108.84;;;15.56;65.20
23059;BME280;30585;51.502;7.218;2022-09-17T10:23:25;154158.13;;;15.76;70.20
23059;BME280;30585;51.502;7.218;2022-09-17T10:25:54;154123.13;;;15.62;66.83
23059;BME280;30585;51.502;7.218;2022-09-17T10:28:32;154186.72;;;15.87;66.57
23059;BME280;30585;51.502;7.218;2022-09-17T10:31:03;154191.88;;;15.89;62.55
23059;BME280;30585;51.502;7.218;2022-09-17T10:33:38;154199.69;;;15.92;65.61
23059;BME280;30585;51.502;7.218;2022-09-17T10:36:11;154294.41;;;16.30;68.00
23059;BME280;30585;51.502;7.218;2022-09-17T10:38:41;154354.06;;;16.54;65.19
23059;BME280;30585;51.502;7.218;2022-09-17T10:41:17;154370.94;;;16.60;64.20
23059;BME280;30585;51.502;7.218;2022-09-17T10:43:47;154260.66;;;16.16;62.02
23059;BME280;30585;51.502;7.218;2022-09-17T10:46:18;154304.75;;;16.34;62.05
23059;BME280;30585;51.502;7.218;2022-09-17T10:49:04;154133.47;;;15.66;66.40
23059;BME280;30585;51.502;7.218;2022-09-17T10:51:37;153959.72;;;14.96;70.70
23059;BME280;30585;51.502;7.218;2022-09-17T10:54:18;153744.53;;;14.11;78.04
23059;BME280;30585;51.502;7.218;2022-09-17T10:56:53;153701.81;;;13.94;86.18
23059;BME280;30585;51.502;7.218;2022-09-17T10:59:52;153735.47;;;14.07;82.67
23059;BME280;30585;51.502;7.218;2022-09-17T11:02:55;153780.84;;;14.25;88.56
23059;BME280;30585;51.502;7.218;2022-09-17T11:05:37;153885.84;;;14.67;86.66
23059;BME280;30585;51.502;7.218;2022-09-17T11:08:11;153907.91;;;14.76;84.08
23059;BME280;30585;51.502;7.218;2022-09-17T11:10:50;153957.16;;;14.95;84.74
23059;BME280;30585;51.502;7.218;2022-09-17T11:13:27;153992.16;;;15.09;83.73
23059;BME280;30585;51.502;7.218;2022-09-17T11:16:09;153968.81;;;15.00;81.21
23059;BME280;30585;51.502;7.218;2022-09-17T11:18:41;153888.44;;;14.68;79.59
23059;BME280;30585;51.502;7.218;2022-09-17T11:21:31;153813.22;;;14.38;84.29
23059;BME280;30585;51.502;7.218;2022-09-17T11:24:41;153668.13;;;13.80;88.53
23059;BME280;30585;51.502;7.218;2022-09-17T11:30:27;153488.06;;;13.08;90.79
23059;BME280;30585;51.502;7.218;2022-09-17T11:33:38;153523.03;;;13.22;94.14
23059;BME280;30585;51.502;7.218;2022-09-17T11:36:16;153484.22;;;13.07;89.94
23059;BME280;30585;51.502;7.218;2022-09-17T11:38:48;153581.34;;;13.46;92.39
23059;BME280;30585;51.502;7.218;2022-09-17T11:41:21;153747.13;;;14.12;93.44
23059;BME280;30585;51.502;7.218;2022-09-17T11:44:02;153808.03;;;14.36;89.06
23059;BME280;30585;51.502;7.218;2022-09-17T11:46:38;153881.94;;;14.65;86.64
23059;BME280;30585;51.502;7.218;2022-09-17T11:49:13;153905.31;;;14.75;86.99
23059;BME280;30585;51.502;7.218;2022-09-17T11:51:45;153959.72;;;14.96;86.06
23059;BME280;30585;51.502;7.218;2022-09-17T11:54:20;153942.91;;;14.90;84.04
23059;BME280;30585;51.502;7.218;2022-09-17T11:56:53;153906.59;;;14.75;81.68
23059;BME280;30585;51.502;7.218;2022-09-17T11:59:27;153926.03;;;14.83;83.53
23059;BME280;30585;51.502;7.218;2022-09-17T12:02:00;153988.25;;;15.08;81.98
23059;BME280;30585;51.502;7.218;2022-09-17T12:04:37;154115.31;;;15.58;80.23
23059;BME280;30585;51.502;7.218;2022-09-17T12:07:17;154191.88;;;15.89;76.93
23059;BME280;30585;51.502;7.218;2022-09-17T12:09:51;154278.78;;;16.24;76.46
23059;BME280;30585;51.502;7.218;2022-09-17T12:12:23;154311.22;;;16.36;74.68
23059;BME280;30585;51.502;7.218;2022-09-17T12:15:17;154254.16;;;16.14;74.88
23059;BME280;30585;51.502;7.218;2022-09-17T12:17:51;154165.88;;;15.79;73.21
23059;BME280;30585;51.502;7.218;2022-09-17T12:20:44;153988.25;;;15.08;77.72
23059;BME280;30585;51.502;7.218;2022-09-17T12:23:16;154010.31;;;15.17;77.64
23059;BME280;30585;51.502;7.218;2022-09-17T12:25:51;153966.22;;;14.99;78.36
23059;BME280;30585;51.502;7.218;2022-09-17T12:28:29;153866.34;;;14.59;80.81
23059;BME280;30585;51.502;7.218;2022-09-17T12:31:04;153884.56;;;14.67;83.36
23059;BME280;30585;51.502;7.218;2022-09-17T12:33:36;153888.44;;;14.68;81.97
23059;BME280;30585;51.502;7.218;2022-09-17T12:36:29;153836.56;;;14.47;81.48
23059;BME280;30585;51.502;7.218;2022-09-17T12:39:28;153915.66;;;14.79;79.71
23059;BME280;30585;51.502;7.218;2022-09-17T12:42:06;154063.44;;;15.38;82.06
23059;BME280;30585;51.502;7.218;2022-09-17T12:44:56;154095.84;;;15.51;81.27
23059;BME280;30585;51.502;7.218;2022-09-17T12:50:37;154239.91;;;16.08;79.91
23059;BME280;30585;51.502;7.218;2022-09-17T12:53:14;154272.31;;;16.21;80.74
23059;BME280;30585;51.502;7.218;2022-09-17T12:55:55;154217.81;;;15.99;76.28
23059;BME280;30585;51.502;7.218;2022-09-17T12:58:36;154322.91;;;16.41;77.71
23059;BME280;30585;51.502;7.218;2022-09-17T13:01:15;154334.56;;;16.46;71.79
23059;BME280;30585;51.502;7.218;2022-09-17T13:03:48;154324.22;;;16.42;69.12
23059;BME280;30585;51.502;7.218;2022-09-17T13:09:39;154395.56;;;16.70;67.34
23059;BME280;30585;51.502;7.218;2022-09-17T13:12:19;154154.22;;;15.74;72.52
23059;BME280;30585;51.502;7.218;2022-09-17T13:15:01;154160.72;;;15.77;76.16
23059;BME280;30585;51.502;7.218;2022-09-17T13:17:38;154043.97;;;15.30;78.09
23059;BME280;30585;51.502;7.218;2022-09-17T13:20:17;153953.25;;;14.94;79.91
23059;BME280;30585;51.502;7.218;2022-09-17T13:22:50;153953.25;;;14.94;82.85
23059;BME280;30585;51.502;7.218;2022-09-17T13:25:20;153935.09;;;14.87;79.69
23059;BME280;30585;51.502;7.218;2022-09-17T13:27:49;153888.44;;;14.68;77.46
23059;BME280;30585;51.502;7.218;2022-09-17T13:30:18;153865.06;;;14.59;81.62
23059;BME280;30585;51.502;7.218;2022-09-17T13:32:49;153841.75;;;14.49;79.65
23059;BME280;30585;51.502;7.218;2022-09-17T13:35:48;153836.56;;;14.47;78.67
23059;BME280;30585;51.502;7.218;2022-09-17T13:38:18;153818.41;;;14.40;78.47
23059;BME280;30585;51.502;7.218;2022-09-17T13:40:50;153718.63;;;14.00;85.28
23059;BME280;30585;51.502;7.218;2022-09-17T13:43:21;153661.66;;;13.78;89.37